createdAt,value
2022-08-09T00:00:20.974Z,122.00
2022-08-09T00:02:49.526Z,122.07
2022-08-09T00:06:18.916Z,121.97
2022-08-09T00:08:31.668Z,121.50
2022-08-09T00:11:00.981Z,122.00
2022-08-09T00:13:33.260Z,121.60
2022-08-09T00:16:06.127Z,121.50
2022-08-09T00:18:36.037Z,121.80
2022-08-09T00:21:08.661Z,121.67
2022-08-09T00:23:56.143Z,121.93
2022-08-09T00:26:32.334Z,122.23
2022-08-09T00:29:02.759Z,122.13
2022-08-09T00:31:59.630Z,121.80
2022-08-09T00:34:19.997Z,122.47
2022-08-09T00:36:49.243Z,121.67
2022-08-09T00:40:09.447Z,121.87
2022-08-09T00:44:15.773Z,122.10
2022-08-09T00:44:53.791Z,122.00
2022-08-09T00:47:23.872Z,121.73
2022-08-09T00:49:56.617Z,121.87
2022-08-09T00:52:28.184Z,121.53
2022-08-09T00:55:01.433Z,122.50
2022-08-09T00:57:34.724Z,122.07
2022-08-09T01:00:21.016Z,121.77
2022-08-09T01:03:08.676Z,121.90
2022-08-09T01:06:17.502Z,122.07
2022-08-09T01:09:36.912Z,122.13
2022-08-09T01:12:23.402Z,122.10
2022-08-09T01:15:06.079Z,122.17
2022-08-09T01:17:59.508Z,122.17
2022-08-09T01:21:04.652Z,122.87
2022-08-09T01:24:02.558Z,122.67
2022-08-09T01:27:08.148Z,121.83
2022-08-09T01:30:02.385Z,122.43
2022-08-09T01:32:46.380Z,122.07
2022-08-09T01:35:37.792Z,122.83
2022-08-09T01:38:20.169Z,122.37
2022-08-09T01:41:05.298Z,122.30
2022-08-09T01:43:50.108Z,122.40
2022-08-09T01:46:32.547Z,121.67
2022-08-09T01:49:10.093Z,122.40
2022-08-09T01:51:53.978Z,122.03
2022-08-09T01:54:40.056Z,122.70
2022-08-09T01:57:20.483Z,122.17
2022-08-09T02:00:00.186Z,122.17
2022-08-09T02:02:32.741Z,122.57
2022-08-09T02:05:15.516Z,122.67
2022-08-09T02:08:39.747Z,122.70
2022-08-09T02:10:51.719Z,122.10
2022-08-09T02:13:26.218Z,122.70
2022-08-09T02:16:10.166Z,122.80
2022-08-09T02:18:42.753Z,121.80
2022-08-09T02:21:22.118Z,122.87
2022-08-09T02:23:57.694Z,122.67
2022-08-09T02:26:30.152Z,123.10
2022-08-09T02:29:03.594Z,122.83
2022-08-09T02:31:36.467Z,123.27
2022-08-09T02:34:40.376Z,123.17
2022-08-09T02:37:14.042Z,123.03
2022-08-09T02:40:01.623Z,122.97
2022-08-09T02:42:42.162Z,122.80
2022-08-09T02:45:28.723Z,122.67
2022-08-09T02:48:06.054Z,123.07
2022-08-09T02:50:54.355Z,123.00
2022-08-09T02:53:40.074Z,123.10
2022-08-09T02:56:22.888Z,122.50
2022-08-09T02:58:52.465Z,122.70
2022-08-09T03:01:29.144Z,122.53
2022-08-09T03:04:17.315Z,123.40
2022-08-09T03:06:48.791Z,122.90
2022-08-09T03:09:20.167Z,122.70
2022-08-09T03:12:09.644Z,122.67
2022-08-09T03:14:39.312Z,122.90
2022-08-09T03:17:08.886Z,123.37
2022-08-09T03:19:59.115Z,123.53
2022-08-09T03:22:41.811Z,123.20
2022-08-09T03:25:25.870Z,123.17
2022-08-09T03:28:04.191Z,123.30
2022-08-09T03:30:39.506Z,123.07
2022-08-09T03:33:12.775Z,123.17
2022-08-09T03:36:13.142Z,122.87
2022-08-09T03:38:32.255Z,122.53
2022-08-09T03:40:59.715Z,123.27
2022-08-09T03:43:28.838Z,123.87
2022-08-09T03:46:19.649Z,123.70
2022-08-09T03:48:57.687Z,123.87
2022-08-09T03:51:57.793Z,123.20
2022-08-09T03:54:16.776Z,123.73
2022-08-09T03:56:46.629Z,123.50
2022-08-09T03:59:21.149Z,123.20
2022-08-09T04:01:59.255Z,123.70
2022-08-09T04:04:36.062Z,122.93
2022-08-09T04:07:06.494Z,123.07
2022-08-09T04:09:47.655Z,122.97
2022-08-09T04:12:37.936Z,123.20
2022-08-09T04:15:17.382Z,123.30
2022-08-09T04:17:57.708Z,123.30
2022-08-09T04:20:25.356Z,123.77
2022-08-09T04:22:53.495Z,122.90
2022-08-09T04:25:21.248Z,122.87
2022-08-09T04:27:49.456Z,123.20
2022-08-09T04:30:20.667Z,122.77
2022-08-09T04:32:51.733Z,122.43
2022-08-09T04:35:21.808Z,123.20
2022-08-09T04:37:49.872Z,121.97
2022-08-09T04:40:28.770Z,122.27
2022-08-09T04:43:04.071Z,123.10
2022-08-09T04:45:35.837Z,123.00
2022-08-09T04:48:06.662Z,122.40
2022-08-09T04:50:37.817Z,123.00
2022-08-09T04:53:13.543Z,122.37
2022-08-09T04:55:57.498Z,122.50
2022-08-09T04:58:31.912Z,122.30
2022-08-09T05:01:02.027Z,122.03
2022-08-09T05:03:40.480Z,123.00
2022-08-09T05:06:21.773Z,122.57
2022-08-09T05:09:00.474Z,122.40
2022-08-09T05:11:30.572Z,122.37
2022-08-09T05:14:05.785Z,122.60
2022-08-09T05:16:58.172Z,122.67
2022-08-09T05:19:25.548Z,122.60
2022-08-09T05:21:55.484Z,121.87
2022-08-09T05:24:25.164Z,121.90
2022-08-09T05:26:53.293Z,122.10
2022-08-09T05:29:24.070Z,122.47
2022-08-09T05:31:56.804Z,122.33
2022-08-09T05:34:31.470Z,122.07
2022-08-09T05:37:06.128Z,121.57
2022-08-09T05:39:42.835Z,122.13
2022-08-09T05:42:17.294Z,122.37
2022-08-09T05:44:51.293Z,121.60
2022-08-09T05:47:22.393Z,120.87
2022-08-09T05:50:30.349Z,122.07
2022-08-09T05:52:41.748Z,121.73
2022-08-09T05:55:20.549Z,121.50
2022-08-09T05:57:50.917Z,121.33
2022-08-09T06:00:28.802Z,121.00
2022-08-09T06:02:58.984Z,120.87
2022-08-09T06:05:57.592Z,120.53
2022-08-09T06:08:24.362Z,120.20
2022-08-09T06:10:55.283Z,120.03
2022-08-09T06:13:23.802Z,119.77
2022-08-09T06:15:52.791Z,120.80
2022-08-09T06:18:25.396Z,120.20
2022-08-09T06:20:58.580Z,119.90
2022-08-09T06:23:57.688Z,119.33
2022-08-09T06:26:22.736Z,119.43
2022-08-09T06:29:00.963Z,118.47
2022-08-09T06:31:39.708Z,118.80
2022-08-09T06:34:22.462Z,118.70
2022-08-09T06:36:57.153Z,118.60
2022-08-09T06:39:24.691Z,117.67
2022-08-09T06:42:12.143Z,118.80
2022-08-09T06:44:39.117Z,117.47
2022-08-09T06:47:06.603Z,117.77
2022-08-09T06:50:11.781Z,117.90
2022-08-09T06:52:23.866Z,118.30
2022-08-09T06:54:54.105Z,117.70
2022-08-09T06:57:42.613Z,118.50
2022-08-09T07:00:56.410Z,117.67
2022-08-09T07:02:59.006Z,118.77
2022-08-09T07:05:53.846Z,119.00
2022-08-09T07:08:13.791Z,118.07
2022-08-09T07:10:41.315Z,118.80
2022-08-09T07:13:18.809Z,118.27
2022-08-09T07:16:41.261Z,118.50
2022-08-09T07:18:43.734Z,115.93
2022-08-09T07:21:11.411Z,115.80
2022-08-09T07:23:56.505Z,116.43
2022-08-09T07:26:26.224Z,116.00
2022-08-09T07:29:08.611Z,114.40
2022-08-09T07:31:45.381Z,115.20
2022-08-09T07:34:20.543Z,116.43
2022-08-09T07:36:49.858Z,115.67
2022-08-09T07:39:20.532Z,116.50
2022-08-09T07:42:06.265Z,117.37
2022-08-09T07:44:51.899Z,117.30
2022-08-09T07:47:23.282Z,116.07
2022-08-09T07:50:07.829Z,116.37
2022-08-09T07:52:37.916Z,114.80
2022-08-09T07:55:09.620Z,114.60
2022-08-09T07:57:47.049Z,114.27
2022-08-09T08:03:36.952Z,113.53
2022-08-09T08:06:05.563Z,112.57
2022-08-09T08:09:00.310Z,111.97
2022-08-09T08:12:10.577Z,110.90
2022-08-09T08:14:08.829Z,110.67
2022-08-09T08:16:36.469Z,111.47
2022-08-09T08:19:07.223Z,110.97
2022-08-09T08:21:39.708Z,110.97
2022-08-09T08:24:12.159Z,110.53
2022-08-09T08:26:55.458Z,110.30
2022-08-09T08:29:27.848Z,109.77
2022-08-09T08:32:03.121Z,109.60
2022-08-09T08:34:33.580Z,109.17
2022-08-09T08:37:02.685Z,109.40
2022-08-09T08:39:38.187Z,109.67
2022-08-09T08:42:11.225Z,109.90
2022-08-09T08:44:39.757Z,109.20
2022-08-09T08:47:13.014Z,108.27
2022-08-09T08:49:48.326Z,111.37
2022-08-09T08:55:15.263Z,109.13
2022-08-09T08:57:57.402Z,108.77
2022-08-09T09:00:29.949Z,108.70
2022-08-09T09:03:08.674Z,108.20
2022-08-09T09:06:00.149Z,107.70
2022-08-09T09:08:38.086Z,107.93
2022-08-09T09:11:17.258Z,107.20
2022-08-09T09:13:56.307Z,107.97
2022-08-09T09:16:34.143Z,107.27
2022-08-09T09:19:39.380Z,107.50
2022-08-09T09:22:11.651Z,109.87
2022-08-09T09:26:03.126Z,108.63
2022-08-09T09:28:06.483Z,105.07
2022-08-09T09:30:41.982Z,106.20
2022-08-09T09:33:14.408Z,106.57
2022-08-09T09:36:02.322Z,107.20
2022-08-09T09:38:56.871Z,107.60
2022-08-09T09:41:27.733Z,106.60
2022-08-09T09:44:12.961Z,106.70
2022-08-09T09:46:51.018Z,107.67
2022-08-09T09:49:31.974Z,107.60
2022-08-09T09:52:16.719Z,109.10
2022-08-09T09:55:16.332Z,111.30
2022-08-09T09:58:16.470Z,111.53
2022-08-09T10:00:58.406Z,111.27
2022-08-09T10:03:57.314Z,108.70
2022-08-09T10:06:28.018Z,107.20
2022-08-09T10:09:21.870Z,106.47
2022-08-09T10:12:12.458Z,106.80
2022-08-09T10:14:51.484Z,107.00
2022-08-09T10:17:51.151Z,106.77
2022-08-09T10:20:27.137Z,107.07
2022-08-09T10:23:16.941Z,106.97
2022-08-09T10:26:07.886Z,106.97
2022-08-09T10:28:37.811Z,106.57
2022-08-09T10:34:10.848Z,105.57
2022-08-09T10:36:45.294Z,105.57
2022-08-09T10:39:15.801Z,104.67
2022-08-09T10:41:47.700Z,104.50
2022-08-09T10:44:23.059Z,105.77
2022-08-09T10:47:28.171Z,105.23
2022-08-09T10:50:15.617Z,103.80
2022-08-09T10:53:10.519Z,105.47
2022-08-09T10:55:58.163Z,105.43
2022-08-09T10:58:34.805Z,104.37
2022-08-09T11:03:03.068Z,103.07
2022-08-09T11:04:30.310Z,103.20
2022-08-09T11:06:59.924Z,104.83
2022-08-09T11:09:59.694Z,103.57
2022-08-09T11:12:29.825Z,103.87
2022-08-09T11:15:07.947Z,103.57
2022-08-09T11:17:45.027Z,104.20
2022-08-09T11:20:22.757Z,104.57
2022-08-09T11:22:57.130Z,103.60
2022-08-09T11:25:44.773Z,104.47
2022-08-09T11:28:55.654Z,105.80
2022-08-09T11:31:49.651Z,105.17
2022-08-09T11:34:43.180Z,106.27
2022-08-09T11:37:26.275Z,110.13
2022-08-09T11:40:12.571Z,109.33
2022-08-09T11:42:49.736Z,109.60
2022-08-09T11:45:26.306Z,106.90
2022-08-09T11:48:26.178Z,104.47
2022-08-09T11:51:38.125Z,102.00
2022-08-09T11:54:28.564Z,100.60
2022-08-09T11:57:56.464Z,100.20
2022-08-09T12:00:31.143Z,100.70
2022-08-09T12:03:50.197Z,101.40
2022-08-09T12:05:52.316Z,104.00
2022-08-09T12:08:23.008Z,107.07
2022-08-09T12:10:56.829Z,110.57
2022-08-09T12:14:08.219Z,109.97
2022-08-09T12:16:38.385Z,108.73
2022-08-09T12:19:09.368Z,109.77
2022-08-09T12:21:48.736Z,110.40
2022-08-09T12:24:24.818Z,107.70
2022-08-09T12:28:59.090Z,106.47
2022-08-09T12:30:00.131Z,103.40
2022-08-09T12:32:32.593Z,102.67
2022-08-09T12:35:12.409Z,101.60
2022-08-09T12:37:50.783Z,104.40
2022-08-09T12:40:23.223Z,104.87
2022-08-09T12:42:53.893Z,102.90
2022-08-09T12:45:34.380Z,101.47
2022-08-09T12:48:19.966Z,102.17
2022-08-09T12:50:57.069Z,103.77
2022-08-09T12:53:40.815Z,106.00
2022-08-09T12:56:44.147Z,106.50
2022-08-09T12:59:14.005Z,106.87
2022-08-09T13:02:01.739Z,105.50
2022-08-09T13:04:37.507Z,102.90
2022-08-09T13:07:19.882Z,101.87
2022-08-09T13:10:04.549Z,101.77
2022-08-09T13:12:32.349Z,102.37
2022-08-09T13:15:10.369Z,101.67
2022-08-09T13:18:03.288Z,102.00
2022-08-09T13:20:37.474Z,104.87
2022-08-09T13:24:17.465Z,108.97
2022-08-09T13:26:50.066Z,110.10
2022-08-09T13:29:42.131Z,110.50
2022-08-09T13:32:20.295Z,108.87
2022-08-09T13:34:55.219Z,108.83
2022-08-09T13:37:51.246Z,107.17
2022-08-09T13:41:50.813Z,105.20
2022-08-09T13:43:04.013Z,105.27
2022-08-09T13:46:42.626Z,104.97
2022-08-09T13:48:20.543Z,103.30
2022-08-09T13:50:48.561Z,102.57
2022-08-09T13:53:17.133Z,102.10
2022-08-09T13:55:44.924Z,102.77
2022-08-09T13:58:15.567Z,102.40
2022-08-09T14:00:50.631Z,104.50
2022-08-09T14:04:05.236Z,108.20
2022-08-09T14:06:19.541Z,108.40
2022-08-09T14:08:54.546Z,108.97
2022-08-09T14:11:22.400Z,105.27
2022-08-09T14:14:24.927Z,107.07
2022-08-09T14:16:38.304Z,106.80
2022-08-09T14:19:07.861Z,107.20
2022-08-09T14:21:35.677Z,105.53
2022-08-09T14:24:05.486Z,105.07
2022-08-09T14:26:51.153Z,102.10
2022-08-09T14:30:04.454Z,101.17
2022-08-09T14:32:13.202Z,101.30
2022-08-09T14:34:44.233Z,101.57
2022-08-09T14:37:12.054Z,102.20
2022-08-09T14:39:46.753Z,102.20
2022-08-09T14:42:28.937Z,102.20
2022-08-09T14:46:40.170Z,102.10
2022-08-09T14:47:58.592Z,101.20
2022-08-09T14:50:31.426Z,101.87
2022-08-09T14:53:11.639Z,102.80
2022-08-09T14:55:42.003Z,102.00
2022-08-09T14:58:10.727Z,102.00
2022-08-09T15:00:42.335Z,103.20
2022-08-09T15:03:10.793Z,102.60
2022-08-09T15:05:39.061Z,103.10
2022-08-09T15:08:10.270Z,102.17
2022-08-09T15:10:38.907Z,102.97
2022-08-09T15:13:08.868Z,102.90
2022-08-09T15:15:39.278Z,102.67
2022-08-09T15:18:12.631Z,101.77
2022-08-09T15:22:00.942Z,102.30
2022-08-09T15:24:06.086Z,103.90
2022-08-09T15:26:31.056Z,104.30
2022-08-09T15:29:04.269Z,107.53
2022-08-09T15:31:41.507Z,110.63
2022-08-09T15:34:32.552Z,114.27
2022-08-09T15:36:59.239Z,114.47
2022-08-09T15:39:34.628Z,115.40
2022-08-09T15:42:14.961Z,117.37
2022-08-09T15:44:42.889Z,117.70
2022-08-09T15:47:14.025Z,113.37
2022-08-09T15:50:00.767Z,111.30
2022-08-09T15:52:30.712Z,110.50
2022-08-09T15:54:58.973Z,110.47
2022-08-09T15:57:34.242Z,110.07
2022-08-09T16:00:24.637Z,109.10
2022-08-09T16:02:56.157Z,109.40
2022-08-09T16:05:47.561Z,109.37
2022-08-09T16:08:30.005Z,108.97
2022-08-09T16:11:02.471Z,108.50
2022-08-09T16:14:02.930Z,108.00
2022-08-09T16:16:28.062Z,108.70
2022-08-09T16:18:55.864Z,109.47
2022-08-09T16:21:26.064Z,109.80
2022-08-09T16:23:58.252Z,110.27
2022-08-09T16:26:35.646Z,111.37
2022-08-09T16:29:12.399Z,112.53
2022-08-09T16:32:18.111Z,112.40
2022-08-09T16:34:56.121Z,113.33
2022-08-09T16:37:55.045Z,115.03
2022-08-09T16:40:13.909Z,114.97
2022-08-09T16:42:48.606Z,114.87
2022-08-09T16:45:21.291Z,114.80
2022-08-09T16:48:39.892Z,115.47
2022-08-09T16:50:39.057Z,115.27
2022-08-09T16:53:06.803Z,114.90
2022-08-09T16:56:00.344Z,115.17
2022-08-09T16:58:25.034Z,115.37
2022-08-09T17:00:53.675Z,115.10
2022-08-09T17:03:23.614Z,115.97
2022-08-09T17:06:08.007Z,115.50
2022-08-09T17:08:58.127Z,115.03
2022-08-09T17:11:40.431Z,115.57
2022-08-09T17:14:25.921Z,115.53
2022-08-09T17:17:02.381Z,115.77
2022-08-09T17:20:06.030Z,115.30
2022-08-09T17:22:23.744Z,115.77
2022-08-09T17:24:55.294Z,115.70
2022-08-09T17:27:24.238Z,115.80
2022-08-09T17:29:52.760Z,116.07
2022-08-09T17:32:26.601Z,116.07
2022-08-09T17:35:10.460Z,116.17
2022-08-09T17:38:10.258Z,116.47
2022-08-09T17:40:33.981Z,116.27
2022-08-09T17:43:32.522Z,116.30
2022-08-09T17:46:03.256Z,116.37
2022-08-09T17:48:40.425Z,116.77
2022-08-09T17:51:18.658Z,116.70
2022-08-09T17:53:52.885Z,116.10
2022-08-09T17:56:35.255Z,117.57
2022-08-09T17:59:09.459Z,116.97
2022-08-09T18:02:06.299Z,116.37
2022-08-09T18:04:28.563Z,117.57
2022-08-09T18:06:56.726Z,116.57
2022-08-09T18:09:41.127Z,116.97
2022-08-09T18:12:19.557Z,118.40
2022-08-09T18:14:53.836Z,117.77
2022-08-09T18:18:03.002Z,118.43
2022-08-09T18:20:56.143Z,117.47
2022-08-09T18:23:04.922Z,118.10
2022-08-09T18:25:50.016Z,117.00
2022-08-09T18:30:40.264Z,118.70
2022-08-09T18:31:08.785Z,118.80
2022-08-09T18:33:36.388Z,119.07
2022-08-09T18:36:04.524Z,119.03
2022-08-09T18:38:32.049Z,118.13
2022-08-09T18:40:59.583Z,118.30
2022-08-09T18:43:27.736Z,118.90
2022-08-09T18:46:47.133Z,117.13
2022-08-09T18:48:51.901Z,118.40
2022-08-09T18:51:20.734Z,119.27
2022-08-09T18:54:08.632Z,117.77
2022-08-09T18:56:53.922Z,118.80
2022-08-09T18:59:22.361Z,118.07
2022-08-09T19:01:54.928Z,119.50
2022-08-09T19:04:34.863Z,120.27
2022-08-09T19:07:03.032Z,120.03
2022-08-09T19:10:13.212Z,120.17
2022-08-09T19:12:21.266Z,119.37
2022-08-09T19:14:51.313Z,120.70
2022-08-09T19:17:20.606Z,119.20
2022-08-09T19:19:49.036Z,120.97
2022-08-09T19:22:17.429Z,122.27
2022-08-09T19:25:11.418Z,121.77
2022-08-09T19:27:34.798Z,122.37
2022-08-09T19:30:22.910Z,125.33
2022-08-09T19:32:53.544Z,125.00
2022-08-09T19:35:26.198Z,124.23
2022-08-09T19:37:57.696Z,123.53
2022-08-09T19:40:34.472Z,124.03
2022-08-09T19:43:05.425Z,122.87
2022-08-09T19:45:43.451Z,122.33
2022-08-09T19:48:11.751Z,122.10
2022-08-09T19:50:51.511Z,122.40
2022-08-09T19:53:21.388Z,122.10
2022-08-09T19:56:02.708Z,121.80
2022-08-09T19:58:34.770Z,121.67
2022-08-09T20:01:04.006Z,121.47
2022-08-09T20:04:16.868Z,121.97
2022-08-09T20:06:23.390Z,121.70
2022-08-09T20:08:57.280Z,121.93
2022-08-09T20:11:26.879Z,121.70
2022-08-09T20:13:55.746Z,121.47
2022-08-09T20:16:33.029Z,121.47
2022-08-09T20:19:47.852Z,121.33
2022-08-09T20:21:56.969Z,121.97
2022-08-09T20:24:31.941Z,122.20
2022-08-09T20:27:08.220Z,122.37
2022-08-09T20:29:38.653Z,122.40
2022-08-09T20:32:29.262Z,122.40
2022-08-09T20:34:57.042Z,122.67
2022-08-09T20:37:25.130Z,122.67
2022-08-09T20:40:16.308Z,123.07
2022-08-09T20:42:53.153Z,122.50
2022-08-09T20:46:00.076Z,122.97
2022-08-09T20:48:20.887Z,122.90
2022-08-09T20:50:55.704Z,122.60
2022-08-09T20:53:36.348Z,121.97
2022-08-09T20:56:17.356Z,122.67
2022-08-09T20:58:58.868Z,122.30
2022-08-09T21:01:34.954Z,122.10
2022-08-09T21:05:49.318Z,121.57
2022-08-09T21:07:11.466Z,121.47
2022-08-09T21:09:45.490Z,121.57
2022-08-09T21:14:48.365Z,121.27
2022-08-09T21:18:22.980Z,121.40
2022-08-09T21:20:23.023Z,121.40
2022-08-09T21:22:54.880Z,121.60
2022-08-09T21:25:44.489Z,121.37
2022-08-09T21:28:34.854Z,121.67
2022-08-09T21:31:17.417Z,121.40
2022-08-09T21:33:52.409Z,122.10
2022-08-09T21:36:27.971Z,121.47
2022-08-09T21:38:58.865Z,121.90
2022-08-09T21:42:04.668Z,121.40
2022-08-09T21:44:34.109Z,121.50
2022-08-09T21:47:08.618Z,121.47
2022-08-09T21:49:39.722Z,122.23
2022-08-09T21:52:16.722Z,121.77
2022-08-09T21:54:59.383Z,122.17
2022-08-09T21:57:38.641Z,121.87
2022-08-09T22:00:32.693Z,121.40
2022-08-09T22:03:04.916Z,121.67
2022-08-09T22:05:37.354Z,121.67
2022-08-09T22:08:13.507Z,121.90
2022-08-09T22:11:48.953Z,121.63
2022-08-09T22:13:36.590Z,121.73
2022-08-09T22:16:09.212Z,121.17
2022-08-09T22:18:54.418Z,121.70
2022-08-09T22:21:45.111Z,121.40
2022-08-09T22:24:24.237Z,121.50
2022-08-09T22:26:53.821Z,121.27
2022-08-09T22:29:28.991Z,121.37
2022-08-09T22:32:12.544Z,122.20
2022-08-09T22:34:59.080Z,122.27
2022-08-09T22:37:39.997Z,122.23
2022-08-09T22:40:10.260Z,122.00
2022-08-09T22:42:45.913Z,121.93
2022-08-09T22:48:11.353Z,122.87
2022-08-09T22:48:12.972Z,122.17
2022-08-09T22:50:52.872Z,122.43
2022-08-09T22:53:20.907Z,122.47
2022-08-09T22:56:30.893Z,122.07
2022-08-09T22:58:37.778Z,122.17
2022-08-09T23:01:06.557Z,122.67
2022-08-09T23:04:03.721Z,122.40
2022-08-09T23:06:35.430Z,122.40
2022-08-09T23:09:06.062Z,121.83
2022-08-09T23:11:33.582Z,121.80
2022-08-09T23:14:02.714Z,121.97
2022-08-09T23:16:29.750Z,121.90
2022-08-09T23:18:57.234Z,121.73
2022-08-09T23:21:27.796Z,122.00
2022-08-09T23:24:05.317Z,122.07
2022-08-09T23:26:36.593Z,121.80
2022-08-09T23:29:11.397Z,121.37
2022-08-09T23:31:41.634Z,121.50
2022-08-09T23:34:09.539Z,121.50
2022-08-09T23:36:37.431Z,122.40
2022-08-09T23:39:07.628Z,121.77
2022-08-09T23:41:35.534Z,120.97
2022-08-09T23:44:03.998Z,121.77
2022-08-09T23:46:32.653Z,121.80
2022-08-09T23:49:00.769Z,121.83
2022-08-09T23:51:29.109Z,122.13
2022-08-09T23:54:02.196Z,121.90
2022-08-09T23:56:52.118Z,121.77
2022-08-09T23:59:21.292Z,121.73
